Nearby METAR Reports

 

KDPA - Chicago/Dupage, Illinois, USA
Distance from station: ESE 9mi, 15km
Updated: Sat, 17-Nov-2018 4:52pm CST
Overcast
Overcast
 Wind from N
Wind: N 9 mph , 15 km/h
Temperature: 32°F , 0°C
Wind Chill: 24°F , -4°C
Dew Point: 28°F , -2°C
Humidity: 87%
Barometer: 30.30 inHg , 1026.1 hPa
Clouds: Overcast
Visibility: 8 miles , 13 km
Cloud details: Overcast 2500 ft
2018/11/17 22:52 KDPA 172252Z 01008KT 8SM OVC025 00/M02 A3030 RMK AO2 SLP268 T00001022
KARR - Chicago/Aurora, Illinois, USA
Distance from station: SSW 14mi, 22km
Updated: Sat, 17-Nov-2018 4:52pm CST
Overcast
Overcast
 Wind from N
Wind: N 6 mph , 9 km/h
Temperature: 32°F , 0°C
Wind Chill: 26°F , -3°C
Dew Point: 28°F , -2°C
Humidity: 87%
Barometer: 30.30 inHg , 1026.1 hPa
Clouds: Overcast
Visibility: 8 miles , 13 km
Cloud details: Mostly cloudy 3200 ft
Overcast 12000 ft
2018/11/17 22:52 KARR 172252Z 01005KT 8SM BKN032 OVC120 00/M02 A3030 RMK AO2 SLP269 T00001017
 
KDKB - De Kalb, Illinois, USA
Distance from station: W 14mi, 23km
Updated: Sat, 17-Nov-2018 5:10pm CST
Overcast
Overcast
 Wind from NNE
Wind: NNE 10 mph , 17 km/h
Temperature: 32°F , 0°C
Wind Chill: 24°F , -4°C
Dew Point: 28°F , -2°C
Humidity: 87%
Barometer: 30.31 inHg , 1026.4 hPa
Clouds: Overcast
Visibility: 10 miles , 16 km
Cloud details: Overcast 2700 ft
2018/11/17 23:10 KDKB 172310Z AUTO 03009KT 10SM OVC027 00/M02 A3031 RMK AO2 T10021022
KORD - Chicago O'hare, Illinois, USA
Distance from station: E 25mi, 41km
Updated: Sat, 17-Nov-2018 4:51pm CST
Overcast
Overcast
 Wind from N
Wind: N 9 mph , 15 km/h
Temperature: 34°F , 1°C
Wind Chill: 27°F , -3°C
Dew Point: 30°F , -1°C
Humidity: 87%
Barometer: 30.30 inHg , 1026.1 hPa
Clouds: Overcast
Visibility: 10 miles , 16 km
Cloud details: Overcast 2200 ft
2018/11/17 22:51 KORD 172251Z 36008KT 10SM OVC022 01/M01 A3030 RMK AO2 SLP267 T00111006 $
 
KPWK - Palwaukee, Illinois, USA
Distance from station: ENE 29mi, 47km
Updated: Sat, 17-Nov-2018 4:52pm CST
Overcast
Overcast
 Wind from N
Wind: N 8 mph , 13 km/h
Temperature: 36°F , 2°C
Wind Chill: 30°F , -1°C
Dew Point: 28°F , -2°C
Humidity: 75%
Barometer: 30.33 inHg , 1027.1 hPa
Clouds: Overcast
Visibility: 10 miles , 16 km
Cloud details: Overcast 2200 ft
2018/11/17 22:52 KPWK 172252Z 01007KT 10SM OVC022 02/M02 A3033 RMK AO2 SLP276 T00221022
KLOT - Romeoville/Chi, Illinois, USA
Distance from station: SE 30mi, 48km
Updated: Sat, 17-Nov-2018 5:15pm CST

 Wind from NNE
Wind: NNE 7 mph , 11 km/h
Temperature: 34°F , 1°C
Wind Chill: 28°F , -2°C
Dew Point: 32°F , 0°C
Humidity: 93%
Barometer: 30.30 inHg , 1026.1 hPa
Visibility: 10 miles , 16 km
2018/11/17 23:15 KLOT 172315Z AUTO 02006KT 10SM 01/00 A3030 RMK AO2 T00050000
 
KJOT - Joliet, Illinois, USA
Distance from station: SSE 33mi, 53km
Updated: Sat, 17-Nov-2018 5:15pm CST
Overcast
Overcast
 Wind from NNE
Wind: NNE 6 mph , 9 km/h
Temperature: 36°F , 2°C
Wind Chill: 31°F , -1°C
Dew Point: 34°F , 1°C
Humidity: 93%
Barometer: 30.31 inHg , 1026.4 hPa
Clouds: Overcast
Visibility: 10 miles , 16 km
Cloud details: Partly cloudy 900 ft
Mostly cloudy 6500 ft
Overcast 7000 ft
2018/11/17 23:15 KJOT 172315Z AUTO 02005KT 10SM SCT009 BKN065 OVC070 02/01 A3031 RMK AO2 T00150011
KRPJ - Rochelle/Koritz, Illinois, USA
Distance from station: W 34mi, 55km
Updated: Sat, 17-Nov-2018 5:15pm CST
Overcast
Overcast
 Wind from NNE
Wind: NNE 10 mph , 17 km/h
Temperature: 32°F , 0°C
Wind Chill: 24°F , -4°C
Dew Point: 28°F , -2°C
Humidity: 87%
Barometer: 30.32 inHg , 1026.8 hPa
Clouds: Overcast
Visibility: 10 miles , 16 km
Cloud details: Overcast 2800 ft
2018/11/17 23:15 KRPJ 172315Z AUTO 03009KT 10SM OVC028 00/M02 A3032 RMK AO2 T10051022
 
KC09 - Morris-Washburn, Illinois, USA
Distance from station: S 36mi, 59km
Updated: Sat, 17-Nov-2018 5:15pm CST
Light rain, Overcast
Light rain, Overcast
 Wind from NNE
Wind: NNE 7 mph , 11 km/h
Temperature: 34°F , 1°C
Wind Chill: 28°F , -2°C
Dew Point: 32°F , 0°C
Humidity: 93%
Barometer: 30.30 inHg , 1026.1 hPa
Summary: Light rain
Clouds: Overcast
Visibility: 5 miles , 8 km
Cloud details: Partly cloudy 700 ft
Mostly cloudy 3900 ft
Overcast 4500 ft
2018/11/17 23:15 KC09 172315Z AUTO 02006KT 5SM -RA SCT007 BKN039 OVC045 01/00 A3030 RMK AO2 T00050001
KMDW - Chicago, Illinois, USA
Distance from station: ESE 37mi, 59km
Updated: Sat, 17-Nov-2018 4:53pm CST
Overcast
Overcast
 Wind from NNE
Wind: NNE 12 mph , 19 km/h
Temperature: 37°F , 3°C
Wind Chill: 29°F , -2°C
Dew Point: 30°F , -1°C
Humidity: 75%
Barometer: 30.30 inHg , 1026.1 hPa
Clouds: Overcast
Visibility: 10 miles , 16 km
Cloud details: Overcast 2200 ft
2018/11/17 22:53 KMDW 172253Z 03010KT 10SM OVC022 03/M01 A3030 RMK AO2 RAE28 SLP269 P0000 T00281011
 
KRFD - Rockford, Illinois, USA
Distance from station: WNW 38mi, 62km
Updated: Sat, 17-Nov-2018 4:54pm CST
Overcast
Overcast
 Wind from NNE
Wind: NNE 10 mph , 17 km/h
Temperature: 30°F , -1°C
Wind Chill: 21°F , -6°C
Dew Point: 25°F , -4°C
Humidity: 80%
Barometer: 30.34 inHg , 1027.4 hPa
Clouds: Overcast
Visibility: 10 miles , 16 km
Cloud details: Few Clouds 3000 ft
Overcast 14000 ft
2018/11/17 22:54 KRFD 172254Z 03009KT 10SM FEW030 OVC140 M01/M04 A3034 RMK AO2 SLP282 T10061044
KUGN - Waukegan, Illinois, USA
Distance from station: NE 42mi, 68km
Updated: Sat, 17-Nov-2018 4:55pm CST
Overcast
Overcast
 Wind from N
Wind: N 5 mph , 7 km/h
Temperature: 34°F , 1°C
Wind Chill: 29°F , -2°C
Dew Point: 25°F , -4°C
Humidity: 70%
Barometer: 30.31 inHg , 1026.4 hPa
Clouds: Overcast
Visibility: 10 miles , 16 km
Cloud details: Overcast 2400 ft
2018/11/17 22:55 KUGN 172255Z 01004KT 10SM OVC024 01/M04 A3031 RMK AO2 SLP279 T00061039
 
KBUU - Burlington, Wisconsin, USA
Distance from station: N 50mi, 81km
Updated: Sat, 17-Nov-2018 5:15pm CST
Overcast
Overcast
 Wind from N
Wind: N 5 mph , 7 km/h
Temperature: 30°F , -1°C
Wind Chill: 25°F , -4°C
Dew Point: 21°F , -6°C
Humidity: 69%
Barometer: 30.33 inHg , 1027.1 hPa
Clouds: Overcast
Visibility: 10 miles , 16 km
Cloud details: Overcast 2900 ft
2018/11/17 23:15 KBUU 172315Z AUTO 36004KT 10SM OVC029 M01/M06 A3033 RMK AO2 T10151062